sensor_id;sensor_type;location;lat;lon;timestamp;P1;durP1;ratioP1;P2;durP2;ratioP2
4812;SDS011;2420;51.202;8.698;2022-09-09T00:04:37;2.67;;;2.08;;
4812;SDS011;2420;51.202;8.698;2022-09-09T00:07:15;1.90;;;1.65;;
4812;SDS011;2420;51.202;8.698;2022-09-09T00:12:34;3.10;;;2.05;;
4812;SDS011;2420;51.202;8.698;2022-09-09T00:15:13;3.50;;;2.08;;
4812;SDS011;2420;51.202;8.698;2022-09-09T00:17:58;2.70;;;1.67;;
4812;SDS011;2420;51.202;8.698;2022-09-09T00:20:43;3.30;;;2.17;;
4812;SDS011;2420;51.202;8.698;2022-09-09T00:23:29;3.08;;;2.00;;
4812;SDS011;2420;51.202;8.698;2022-09-09T00:28:39;3.88;;;1.90;;
4812;SDS011;2420;51.202;8.698;2022-09-09T00:31:15;2.53;;;1.92;;
4812;SDS011;2420;51.202;8.698;2022-09-09T00:33:45;2.63;;;1.70;;
4812;SDS011;2420;51.202;8.698;2022-09-09T00:36:14;1.70;;;1.60;;
4812;SDS011;2420;51.202;8.698;2022-09-09T00:38:51;3.85;;;1.92;;
4812;SDS011;2420;51.202;8.698;2022-09-09T00:47:20;2.65;;;1.58;;
4812;SDS011;2420;51.202;8.698;2022-09-09T00:57:58;1.85;;;1.70;;
4812;SDS011;2420;51.202;8.698;2022-09-09T01:00:25;2.95;;;1.80;;
4812;SDS011;2420;51.202;8.698;2022-09-09T01:08:11;3.28;;;1.70;;
4812;SDS011;2420;51.202;8.698;2022-09-09T01:11:07;3.00;;;1.60;;
4812;SDS011;2420;51.202;8.698;2022-09-09T01:13:39;2.22;;;1.40;;
4812;SDS011;2420;51.202;8.698;2022-09-09T01:16:08;3.08;;;1.70;;
4812;SDS011;2420;51.202;8.698;2022-09-09T01:18:40;2.25;;;1.75;;
4812;SDS011;2420;51.202;8.698;2022-09-09T01:24:36;4.40;;;1.60;;
4812;SDS011;2420;51.202;8.698;2022-09-09T01:27:07;1.92;;;1.50;;
4812;SDS011;2420;51.202;8.698;2022-09-09T01:29:35;3.17;;;1.60;;
4812;SDS011;2420;51.202;8.698;2022-09-09T01:35:05;2.65;;;1.65;;
4812;SDS011;2420;51.202;8.698;2022-09-09T01:37:36;4.03;;;1.80;;
4812;SDS011;2420;51.202;8.698;2022-09-09T01:40:01;3.33;;;1.75;;
4812;SDS011;2420;51.202;8.698;2022-09-09T01:42:27;1.90;;;1.63;;
4812;SDS011;2420;51.202;8.698;2022-09-09T01:44:52;3.10;;;1.70;;
4812;SDS011;2420;51.202;8.698;2022-09-09T01:47:19;4.32;;;1.92;;
4812;SDS011;2420;51.202;8.698;2022-09-09T01:49:45;2.72;;;1.90;;
4812;SDS011;2420;51.202;8.698;2022-09-09T01:52:10;3.00;;;1.70;;
4812;SDS011;2420;51.202;8.698;2022-09-09T01:54:36;3.28;;;1.70;;
4812;SDS011;2420;51.202;8.698;2022-09-09T01:57:06;3.22;;;1.70;;
4812;SDS011;2420;51.202;8.698;2022-09-09T02:02:32;3.53;;;1.90;;
4812;SDS011;2420;51.202;8.698;2022-09-09T02:05:15;2.15;;;1.58;;
4812;SDS011;2420;51.202;8.698;2022-09-09T02:07:57;1.83;;;1.60;;
4812;SDS011;2420;51.202;8.698;2022-09-09T02:13:10;2.88;;;1.67;;
4812;SDS011;2420;51.202;8.698;2022-09-09T02:15:49;4.03;;;1.73;;
4812;SDS011;2420;51.202;8.698;2022-09-09T02:18:23;2.03;;;1.63;;
4812;SDS011;2420;51.202;8.698;2022-09-09T02:20:53;1.67;;;1.50;;
4812;SDS011;2420;51.202;8.698;2022-09-09T02:23:21;3.25;;;1.80;;
4812;SDS011;2420;51.202;8.698;2022-09-09T02:25:46;3.55;;;1.80;;
4812;SDS011;2420;51.202;8.698;2022-09-09T02:28:14;2.53;;;1.90;;
4812;SDS011;2420;51.202;8.698;2022-09-09T02:30:41;2.03;;;1.83;;
4812;SDS011;2420;51.202;8.698;2022-09-09T02:33:12;2.15;;;1.80;;
4812;SDS011;2420;51.202;8.698;2022-09-09T02:35:39;2.25;;;1.70;;
4812;SDS011;2420;51.202;8.698;2022-09-09T02:38:08;2.53;;;1.80;;
4812;SDS011;2420;51.202;8.698;2022-09-09T02:40:37;2.45;;;1.60;;
4812;SDS011;2420;51.202;8.698;2022-09-09T02:43:03;2.38;;;1.70;;
4812;SDS011;2420;51.202;8.698;2022-09-09T02:45:31;2.35;;;1.80;;
4812;SDS011;2420;51.202;8.698;2022-09-09T02:48:13;2.55;;;1.90;;
4812;SDS011;2420;51.202;8.698;2022-09-09T02:51:08;2.85;;;2.00;;
4812;SDS011;2420;51.202;8.698;2022-09-09T02:56:14;2.50;;;1.92;;
4812;SDS011;2420;51.202;8.698;2022-09-09T02:58:43;5.18;;;1.95;;
4812;SDS011;2420;51.202;8.698;2022-09-09T03:01:08;4.03;;;1.90;;
4812;SDS011;2420;51.202;8.698;2022-09-09T03:03:34;4.47;;;2.00;;
4812;SDS011;2420;51.202;8.698;2022-09-09T03:06:00;5.45;;;1.80;;
4812;SDS011;2420;51.202;8.698;2022-09-09T03:08:26;2.20;;;2.00;;
4812;SDS011;2420;51.202;8.698;2022-09-09T03:10:53;3.97;;;2.30;;
4812;SDS011;2420;51.202;8.698;2022-09-09T03:13:19;2.50;;;1.90;;
4812;SDS011;2420;51.202;8.698;2022-09-09T03:15:45;2.90;;;2.15;;
4812;SDS011;2420;51.202;8.698;2022-09-09T03:18:13;1.75;;;1.63;;
4812;SDS011;2420;51.202;8.698;2022-09-09T03:20:39;3.60;;;1.83;;
4812;SDS011;2420;51.202;8.698;2022-09-09T03:23:06;6.05;;;2.03;;
4812;SDS011;2420;51.202;8.698;2022-09-09T03:25:32;1.92;;;1.70;;
4812;SDS011;2420;51.202;8.698;2022-09-09T03:27:58;2.88;;;1.80;;
4812;SDS011;2420;51.202;8.698;2022-09-09T03:30:25;2.17;;;1.90;;
4812;SDS011;2420;51.202;8.698;2022-09-09T03:32:51;2.53;;;2.10;;
4812;SDS011;2420;51.202;8.698;2022-09-09T03:35:17;2.00;;;1.80;;
4812;SDS011;2420;51.202;8.698;2022-09-09T03:37:43;3.13;;;1.88;;
4812;SDS011;2420;51.202;8.698;2022-09-09T03:40:09;2.53;;;1.95;;
4812;SDS011;2420;51.202;8.698;2022-09-09T03:42:35;3.20;;;2.00;;
4812;SDS011;2420;51.202;8.698;2022-09-09T03:45:02;3.03;;;2.05;;
4812;SDS011;2420;51.202;8.698;2022-09-09T03:47:29;2.15;;;1.80;;
4812;SDS011;2420;51.202;8.698;2022-09-09T03:49:55;5.88;;;2.22;;
4812;SDS011;2420;51.202;8.698;2022-09-09T03:52:21;3.38;;;2.47;;
4812;SDS011;2420;51.202;8.698;2022-09-09T03:54:49;3.30;;;2.20;;
4812;SDS011;2420;51.202;8.698;2022-09-09T03:57:16;2.75;;;2.10;;
4812;SDS011;2420;51.202;8.698;2022-09-09T03:59:42;3.40;;;2.30;;
4812;SDS011;2420;51.202;8.698;2022-09-09T04:02:08;3.25;;;2.28;;
4812;SDS011;2420;51.202;8.698;2022-09-09T04:04:34;3.55;;;2.10;;
4812;SDS011;2420;51.202;8.698;2022-09-09T04:06:59;2.50;;;1.92;;
4812;SDS011;2420;51.202;8.698;2022-09-09T04:09:25;2.53;;;2.00;;
4812;SDS011;2420;51.202;8.698;2022-09-09T04:11:51;2.88;;;2.03;;
4812;SDS011;2420;51.202;8.698;2022-09-09T04:14:18;3.88;;;1.90;;
4812;SDS011;2420;51.202;8.698;2022-09-09T04:16:44;2.72;;;2.00;;
4812;SDS011;2420;51.202;8.698;2022-09-09T04:19:10;2.95;;;2.00;;
4812;SDS011;2420;51.202;8.698;2022-09-09T04:21:37;2.40;;;2.00;;
4812;SDS011;2420;51.202;8.698;2022-09-09T04:24:04;3.28;;;2.10;;
4812;SDS011;2420;51.202;8.698;2022-09-09T04:26:31;2.75;;;2.10;;
4812;SDS011;2420;51.202;8.698;2022-09-09T04:28:57;3.03;;;2.08;;
4812;SDS011;2420;51.202;8.698;2022-09-09T04:31:22;4.05;;;2.22;;
4812;SDS011;2420;51.202;8.698;2022-09-09T04:33:49;2.88;;;2.30;;
4812;SDS011;2420;51.202;8.698;2022-09-09T04:36:15;2.80;;;2.05;;
4812;SDS011;2420;51.202;8.698;2022-09-09T04:38:41;4.38;;;2.97;;
4812;SDS011;2420;51.202;8.698;2022-09-09T04:41:07;5.80;;;2.40;;
4812;SDS011;2420;51.202;8.698;2022-09-09T04:43:33;3.70;;;2.45;;
4812;SDS011;2420;51.202;8.698;2022-09-09T04:45:59;2.67;;;2.13;;
4812;SDS011;2420;51.202;8.698;2022-09-09T04:48:25;4.50;;;2.15;;
4812;SDS011;2420;51.202;8.698;2022-09-09T04:51:00;2.42;;;2.22;;
4812;SDS011;2420;51.202;8.698;2022-09-09T04:53:28;4.10;;;2.45;;
4812;SDS011;2420;51.202;8.698;2022-09-09T04:56:04;4.43;;;2.72;;
4812;SDS011;2420;51.202;8.698;2022-09-09T04:58:30;3.78;;;2.50;;
4812;SDS011;2420;51.202;8.698;2022-09-09T05:01:13;2.85;;;2.17;;
4812;SDS011;2420;51.202;8.698;2022-09-09T05:03:43;6.32;;;2.60;;
4812;SDS011;2420;51.202;8.698;2022-09-09T05:06:11;4.72;;;2.95;;
4812;SDS011;2420;51.202;8.698;2022-09-09T05:08:39;6.40;;;3.40;;
4812;SDS011;2420;51.202;8.698;2022-09-09T05:11:27;7.38;;;3.40;;
4812;SDS011;2420;51.202;8.698;2022-09-09T05:13:54;5.13;;;3.65;;
4812;SDS011;2420;51.202;8.698;2022-09-09T05:16:20;5.20;;;3.42;;
4812;SDS011;2420;51.202;8.698;2022-09-09T05:18:47;5.18;;;3.85;;
4812;SDS011;2420;51.202;8.698;2022-09-09T05:21:15;6.10;;;3.90;;
4812;SDS011;2420;51.202;8.698;2022-09-09T05:23:41;7.88;;;4.05;;
4812;SDS011;2420;51.202;8.698;2022-09-09T05:26:09;6.57;;;4.10;;
4812;SDS011;2420;51.202;8.698;2022-09-09T05:28:38;4.88;;;3.97;;
4812;SDS011;2420;51.202;8.698;2022-09-09T05:31:05;8.15;;;4.13;;
4812;SDS011;2420;51.202;8.698;2022-09-09T05:33:36;6.57;;;3.83;;
4812;SDS011;2420;51.202;8.698;2022-09-09T05:36:06;6.00;;;4.30;;
4812;SDS011;2420;51.202;8.698;2022-09-09T05:38:33;5.47;;;3.88;;
4812;SDS011;2420;51.202;8.698;2022-09-09T05:41:00;7.13;;;4.53;;
4812;SDS011;2420;51.202;8.698;2022-09-09T05:43:27;5.47;;;3.92;;
4812;SDS011;2420;51.202;8.698;2022-09-09T05:48:31;5.13;;;4.20;;
4812;SDS011;2420;51.202;8.698;2022-09-09T05:50:58;5.97;;;4.03;;
4812;SDS011;2420;51.202;8.698;2022-09-09T05:53:24;6.55;;;4.40;;
4812;SDS011;2420;51.202;8.698;2022-09-09T05:55:50;5.47;;;3.90;;
4812;SDS011;2420;51.202;8.698;2022-09-09T05:58:30;9.35;;;4.50;;
4812;SDS011;2420;51.202;8.698;2022-09-09T06:01:00;7.50;;;4.60;;
4812;SDS011;2420;51.202;8.698;2022-09-09T06:03:38;7.40;;;4.35;;
4812;SDS011;2420;51.202;8.698;2022-09-09T06:06:05;8.43;;;4.18;;
4812;SDS011;2420;51.202;8.698;2022-09-09T06:08:36;4.85;;;3.55;;
4812;SDS011;2420;51.202;8.698;2022-09-09T06:13:34;4.60;;;3.67;;
4812;SDS011;2420;51.202;8.698;2022-09-09T06:16:02;5.57;;;3.45;;
4812;SDS011;2420;51.202;8.698;2022-09-09T06:18:28;5.72;;;3.63;;
4812;SDS011;2420;51.202;8.698;2022-09-09T06:20:58;5.45;;;3.40;;
4812;SDS011;2420;51.202;8.698;2022-09-09T06:23:25;9.52;;;3.28;;
4812;SDS011;2420;51.202;8.698;2022-09-09T06:25:59;5.68;;;3.42;;
4812;SDS011;2420;51.202;8.698;2022-09-09T06:28:33;6.00;;;3.88;;
4812;SDS011;2420;51.202;8.698;2022-09-09T06:30:59;4.85;;;3.33;;
4812;SDS011;2420;51.202;8.698;2022-09-09T06:33:26;5.63;;;3.63;;
4812;SDS011;2420;51.202;8.698;2022-09-09T06:35:56;5.63;;;3.67;;
4812;SDS011;2420;51.202;8.698;2022-09-09T06:38:22;6.50;;;3.63;;
4812;SDS011;2420;51.202;8.698;2022-09-09T06:40:54;5.97;;;3.67;;
4812;SDS011;2420;51.202;8.698;2022-09-09T06:43:21;5.05;;;3.67;;
4812;SDS011;2420;51.202;8.698;2022-09-09T06:48:19;6.00;;;3.13;;
4812;SDS011;2420;51.202;8.698;2022-09-09T06:50:45;6.70;;;3.65;;
4812;SDS011;2420;51.202;8.698;2022-09-09T06:53:11;5.70;;;3.10;;
4812;SDS011;2420;51.202;8.698;2022-09-09T06:55:36;3.92;;;2.97;;
4812;SDS011;2420;51.202;8.698;2022-09-09T06:58:02;8.77;;;2.58;;
4812;SDS011;2420;51.202;8.698;2022-09-09T07:00:32;3.75;;;2.40;;
4812;SDS011;2420;51.202;8.698;2022-09-09T07:02:58;5.80;;;2.78;;
4812;SDS011;2420;51.202;8.698;2022-09-09T07:05:23;4.38;;;2.63;;
4812;SDS011;2420;51.202;8.698;2022-09-09T07:07:50;5.35;;;2.40;;
4812;SDS011;2420;51.202;8.698;2022-09-09T07:10:16;6.32;;;3.38;;
4812;SDS011;2420;51.202;8.698;2022-09-09T07:12:42;3.47;;;2.20;;
4812;SDS011;2420;51.202;8.698;2022-09-09T07:15:08;4.22;;;2.35;;
4812;SDS011;2420;51.202;8.698;2022-09-09T07:17:34;4.90;;;2.38;;
4812;SDS011;2420;51.202;8.698;2022-09-09T07:20:00;4.65;;;2.45;;
4812;SDS011;2420;51.202;8.698;2022-09-09T07:22:27;3.70;;;2.40;;
4812;SDS011;2420;51.202;8.698;2022-09-09T07:24:53;5.63;;;2.50;;
4812;SDS011;2420;51.202;8.698;2022-09-09T07:27:18;4.55;;;2.40;;
4812;SDS011;2420;51.202;8.698;2022-09-09T07:29:44;5.25;;;2.40;;
4812;SDS011;2420;51.202;8.698;2022-09-09T07:32:10;6.22;;;2.65;;
4812;SDS011;2420;51.202;8.698;2022-09-09T07:34:36;4.25;;;2.40;;
4812;SDS011;2420;51.202;8.698;2022-09-09T07:37:01;4.90;;;2.47;;
4812;SDS011;2420;51.202;8.698;2022-09-09T07:39:27;5.93;;;2.50;;
4812;SDS011;2420;51.202;8.698;2022-09-09T07:41:53;9.73;;;2.05;;
4812;SDS011;2420;51.202;8.698;2022-09-09T07:44:22;5.13;;;1.83;;
4812;SDS011;2420;51.202;8.698;2022-09-09T07:46:52;4.22;;;2.00;;
4812;SDS011;2420;51.202;8.698;2022-09-09T07:49:17;4.97;;;2.00;;
4812;SDS011;2420;51.202;8.698;2022-09-09T07:51:44;3.15;;;1.88;;
4812;SDS011;2420;51.202;8.698;2022-09-09T07:54:12;3.47;;;1.90;;
4812;SDS011;2420;51.202;8.698;2022-09-09T07:56:40;4.30;;;1.90;;
4812;SDS011;2420;51.202;8.698;2022-09-09T07:59:06;4.05;;;1.95;;
4812;SDS011;2420;51.202;8.698;2022-09-09T08:01:36;2.97;;;2.13;;
4812;SDS011;2420;51.202;8.698;2022-09-09T08:04:08;5.82;;;2.25;;
4812;SDS011;2420;51.202;8.698;2022-09-09T08:06:40;3.95;;;2.45;;
4812;SDS011;2420;51.202;8.698;2022-09-09T08:09:26;5.30;;;2.40;;
4812;SDS011;2420;51.202;8.698;2022-09-09T08:11:54;3.95;;;2.20;;
4812;SDS011;2420;51.202;8.698;2022-09-09T08:14:21;4.68;;;2.33;;
4812;SDS011;2420;51.202;8.698;2022-09-09T08:16:48;5.03;;;2.72;;
4812;SDS011;2420;51.202;8.698;2022-09-09T08:19:14;4.40;;;2.28;;
4812;SDS011;2420;51.202;8.698;2022-09-09T08:21:40;4.05;;;2.20;;
4812;SDS011;2420;51.202;8.698;2022-09-09T08:24:08;4.60;;;2.30;;
4812;SDS011;2420;51.202;8.698;2022-09-09T08:26:45;5.20;;;2.30;;
4812;SDS011;2420;51.202;8.698;2022-09-09T08:29:13;2.88;;;2.10;;
4812;SDS011;2420;51.202;8.698;2022-09-09T08:31:44;6.18;;;2.10;;
4812;SDS011;2420;51.202;8.698;2022-09-09T08:34:11;5.13;;;2.38;;
4812;SDS011;2420;51.202;8.698;2022-09-09T08:36:38;4.35;;;2.03;;
4812;SDS011;2420;51.202;8.698;2022-09-09T08:39:07;3.55;;;2.10;;
4812;SDS011;2420;51.202;8.698;2022-09-09T08:52:51;5.03;;;1.95;;
4812;SDS011;2420;51.202;8.698;2022-09-09T08:58:12;6.32;;;2.30;;
4812;SDS011;2420;51.202;8.698;2022-09-09T09:06:34;3.20;;;1.65;;
4812;SDS011;2420;51.202;8.698;2022-09-09T09:11:56;5.88;;;2.03;;
4812;SDS011;2420;51.202;8.698;2022-09-09T09:14:26;6.03;;;2.10;;
4812;SDS011;2420;51.202;8.698;2022-09-09T09:17:00;4.05;;;1.60;;
4812;SDS011;2420;51.202;8.698;2022-09-09T09:19:28;8.52;;;1.90;;
4812;SDS011;2420;51.202;8.698;2022-09-09T09:22:10;4.13;;;1.65;;
4812;SDS011;2420;51.202;8.698;2022-09-09T09:24:55;5.10;;;1.90;;
4812;SDS011;2420;51.202;8.698;2022-09-09T09:30:02;4.55;;;1.77;;
4812;SDS011;2420;51.202;8.698;2022-09-09T09:32:38;4.43;;;1.60;;
4812;SDS011;2420;51.202;8.698;2022-09-09T09:35:09;2.95;;;1.42;;
4812;SDS011;2420;51.202;8.698;2022-09-09T09:37:37;4.55;;;1.50;;
4812;SDS011;2420;51.202;8.698;2022-09-09T09:40:09;4.82;;;1.45;;
4812;SDS011;2420;51.202;8.698;2022-09-09T09:42:51;3.97;;;1.40;;
4812;SDS011;2420;51.202;8.698;2022-09-09T09:45:26;4.47;;;1.20;;
4812;SDS011;2420;51.202;8.698;2022-09-09T09:48:13;2.65;;;1.20;;
4812;SDS011;2420;51.202;8.698;2022-09-09T09:50:49;3.03;;;1.45;;
4812;SDS011;2420;51.202;8.698;2022-09-09T09:53:20;6.90;;;1.30;;
4812;SDS011;2420;51.202;8.698;2022-09-09T09:56:03;3.22;;;1.48;;
4812;SDS011;2420;51.202;8.698;2022-09-09T09:58:32;4.47;;;1.60;;
4812;SDS011;2420;51.202;8.698;2022-09-09T10:01:03;2.70;;;1.30;;
4812;SDS011;2420;51.202;8.698;2022-09-09T10:03:33;3.75;;;1.65;;
4812;SDS011;2420;51.202;8.698;2022-09-09T10:06:05;5.05;;;1.27;;
4812;SDS011;2420;51.202;8.698;2022-09-09T10:08:33;2.83;;;1.33;;
4812;SDS011;2420;51.202;8.698;2022-09-09T10:16:52;2.80;;;1.45;;
4812;SDS011;2420;51.202;8.698;2022-09-09T10:19:35;2.50;;;1.35;;
4812;SDS011;2420;51.202;8.698;2022-09-09T10:22:09;3.97;;;1.50;;
4812;SDS011;2420;51.202;8.698;2022-09-09T10:30:54;2.63;;;1.40;;
4812;SDS011;2420;51.202;8.698;2022-09-09T10:33:28;4.10;;;1.60;;
4812;SDS011;2420;51.202;8.698;2022-09-09T10:36:12;5.18;;;1.20;;
4812;SDS011;2420;51.202;8.698;2022-09-09T10:38:45;5.00;;;1.38;;
4812;SDS011;2420;51.202;8.698;2022-09-09T10:41:16;2.00;;;1.20;;
4812;SDS011;2420;51.202;8.698;2022-09-09T10:46:46;3.35;;;1.20;;
4812;SDS011;2420;51.202;8.698;2022-09-09T10:55:09;3.13;;;1.65;;
4812;SDS011;2420;51.202;8.698;2022-09-09T10:57:41;2.63;;;1.50;;
4812;SDS011;2420;51.202;8.698;2022-09-09T11:00:22;2.05;;;1.30;;
4812;SDS011;2420;51.202;8.698;2022-09-09T11:02:55;3.15;;;1.40;;
4812;SDS011;2420;51.202;8.698;2022-09-09T11:05:45;4.15;;;1.40;;
4812;SDS011;2420;51.202;8.698;2022-09-09T11:08:13;2.30;;;1.10;;
4812;SDS011;2420;51.202;8.698;2022-09-09T11:10:42;4.85;;;1.50;;
4812;SDS011;2420;51.202;8.698;2022-09-09T11:16:21;2.28;;;1.20;;
4812;SDS011;2420;51.202;8.698;2022-09-09T11:22:50;3.80;;;1.10;;
4812;SDS011;2420;51.202;8.698;2022-09-09T11:25:09;2.55;;;1.00;;
4812;SDS011;2420;51.202;8.698;2022-09-09T11:30:45;2.45;;;1.10;;
4812;SDS011;2420;51.202;8.698;2022-09-09T11:41:16;1.52;;;1.10;;
4812;SDS011;2420;51.202;8.698;2022-09-09T11:43:43;1.67;;;1.10;;
4812;SDS011;2420;51.202;8.698;2022-09-09T11:46:14;1.48;;;1.05;;
4812;SDS011;2420;51.202;8.698;2022-09-09T11:48:43;3.42;;;1.40;;
4812;SDS011;2420;51.202;8.698;2022-09-09T11:51:24;3.50;;;1.20;;
4812;SDS011;2420;51.202;8.698;2022-09-09T11:53:59;1.92;;;1.10;;
4812;SDS011;2420;51.202;8.698;2022-09-09T11:56:34;2.17;;;1.20;;
4812;SDS011;2420;51.202;8.698;2022-09-09T11:59:28;5.22;;;1.40;;
4812;SDS011;2420;51.202;8.698;2022-09-09T12:04:33;2.63;;;1.30;;
4812;SDS011;2420;51.202;8.698;2022-09-09T12:07:21;4.43;;;1.25;;
4812;SDS011;2420;51.202;8.698;2022-09-09T12:12:24;2.85;;;1.20;;
4812;SDS011;2420;51.202;8.698;2022-09-09T12:17:45;2.30;;;1.30;;
4812;SDS011;2420;51.202;8.698;2022-09-09T12:20:32;3.35;;;1.50;;
4812;SDS011;2420;51.202;8.698;2022-09-09T12:25:48;2.42;;;1.20;;
4812;SDS011;2420;51.202;8.698;2022-09-09T12:33:35;3.05;;;1.20;;
4812;SDS011;2420;51.202;8.698;2022-09-09T12:36:04;3.03;;;1.23;;
4812;SDS011;2420;51.202;8.698;2022-09-09T12:38:36;3.85;;;1.50;;
4812;SDS011;2420;51.202;8.698;2022-09-09T12:41:03;3.22;;;1.27;;
4812;SDS011;2420;51.202;8.698;2022-09-09T12:43:29;2.28;;;1.25;;
4812;SDS011;2420;51.202;8.698;2022-09-09T12:45:59;4.28;;;1.30;;
4812;SDS011;2420;51.202;8.698;2022-09-09T12:48:35;2.28;;;1.10;;
4812;SDS011;2420;51.202;8.698;2022-09-09T12:51:05;2.92;;;1.23;;
4812;SDS011;2420;51.202;8.698;2022-09-09T12:53:43;3.05;;;1.20;;
4812;SDS011;2420;51.202;8.698;2022-09-09T12:56:19;2.22;;;1.10;;
4812;SDS011;2420;51.202;8.698;2022-09-09T12:58:47;2.25;;;1.30;;
4812;SDS011;2420;51.202;8.698;2022-09-09T13:01:21;3.17;;;1.10;;
4812;SDS011;2420;51.202;8.698;2022-09-09T13:03:48;4.00;;;1.20;;
4812;SDS011;2420;51.202;8.698;2022-09-09T13:06:32;3.30;;;1.13;;
4812;SDS011;2420;51.202;8.698;2022-09-09T13:08:59;3.22;;;1.48;;
4812;SDS011;2420;51.202;8.698;2022-09-09T13:11:36;4.15;;;1.33;;
4812;SDS011;2420;51.202;8.698;2022-09-09T13:14:12;1.70;;;1.20;;
4812;SDS011;2420;51.202;8.698;2022-09-09T13:16:43;6.55;;;1.50;;
4812;SDS011;2420;51.202;8.698;2022-09-09T13:19:23;4.10;;;1.40;;
4812;SDS011;2420;51.202;8.698;2022-09-09T13:21:52;2.67;;;1.27;;
4812;SDS011;2420;51.202;8.698;2022-09-09T13:24:32;3.72;;;1.60;;
4812;SDS011;2420;51.202;8.698;2022-09-09T13:27:00;3.92;;;1.40;;
4812;SDS011;2420;51.202;8.698;2022-09-09T13:29:28;3.90;;;1.40;;
4812;SDS011;2420;51.202;8.698;2022-09-09T13:32:03;2.85;;;1.20;;
4812;SDS011;2420;51.202;8.698;2022-09-09T13:34:40;3.10;;;1.42;;
4812;SDS011;2420;51.202;8.698;2022-09-09T13:37:25;3.53;;;1.20;;
4812;SDS011;2420;51.202;8.698;2022-09-09T13:40:03;4.80;;;1.50;;
4812;SDS011;2420;51.202;8.698;2022-09-09T13:42:31;3.50;;;1.50;;
4812;SDS011;2420;51.202;8.698;2022-09-09T13:45:00;3.05;;;1.30;;
4812;SDS011;2420;51.202;8.698;2022-09-09T13:47:35;2.05;;;1.10;;
4812;SDS011;2420;51.202;8.698;2022-09-09T13:52:49;3.58;;;1.40;;
4812;SDS011;2420;51.202;8.698;2022-09-09T13:55:18;2.78;;;1.35;;
4812;SDS011;2420;51.202;8.698;2022-09-09T14:00:19;2.67;;;1.42;;
4812;SDS011;2420;51.202;8.698;2022-09-09T14:02:46;1.75;;;1.50;;
4812;SDS011;2420;51.202;8.698;2022-09-09T14:05:12;3.22;;;1.50;;
4812;SDS011;2420;51.202;8.698;2022-09-09T14:07:38;2.75;;;1.50;;
4812;SDS011;2420;51.202;8.698;2022-09-09T14:10:05;4.05;;;1.52;;
4812;SDS011;2420;51.202;8.698;2022-09-09T14:12:31;4.10;;;1.60;;
4812;SDS011;2420;51.202;8.698;2022-09-09T14:14:57;3.67;;;1.60;;
4812;SDS011;2420;51.202;8.698;2022-09-09T14:17:24;4.88;;;1.40;;
4812;SDS011;2420;51.202;8.698;2022-09-09T14:19:54;4.72;;;1.60;;
4812;SDS011;2420;51.202;8.698;2022-09-09T14:22:20;3.45;;;1.60;;
4812;SDS011;2420;51.202;8.698;2022-09-09T14:24:45;4.70;;;1.50;;
4812;SDS011;2420;51.202;8.698;2022-09-09T14:27:11;4.55;;;1.88;;
4812;SDS011;2420;51.202;8.698;2022-09-09T14:29:36;4.70;;;1.40;;
4812;SDS011;2420;51.202;8.698;2022-09-09T14:32:02;5.05;;;1.58;;
4812;SDS011;2420;51.202;8.698;2022-09-09T14:34:27;3.28;;;1.50;;
4812;SDS011;2420;51.202;8.698;2022-09-09T14:36:53;3.47;;;1.55;;
4812;SDS011;2420;51.202;8.698;2022-09-09T14:39:19;4.15;;;1.75;;
4812;SDS011;2420;51.202;8.698;2022-09-09T14:41:44;2.30;;;1.50;;
4812;SDS011;2420;51.202;8.698;2022-09-09T14:44:10;3.15;;;1.50;;
4812;SDS011;2420;51.202;8.698;2022-09-09T14:46:36;2.05;;;1.30;;
4812;SDS011;2420;51.202;8.698;2022-09-09T14:49:02;3.63;;;1.45;;
4812;SDS011;2420;51.202;8.698;2022-09-09T14:51:27;2.70;;;1.50;;
4812;SDS011;2420;51.202;8.698;2022-09-09T14:53:57;6.30;;;1.77;;
4812;SDS011;2420;51.202;8.698;2022-09-09T14:56:25;4.30;;;1.58;;
4812;SDS011;2420;51.202;8.698;2022-09-09T14:58:53;3.72;;;1.58;;
4812;SDS011;2420;51.202;8.698;2022-09-09T15:01:20;3.42;;;1.80;;
4812;SDS011;2420;51.202;8.698;2022-09-09T15:03:51;3.92;;;1.83;;
4812;SDS011;2420;51.202;8.698;2022-09-09T15:06:28;3.78;;;2.00;;
4812;SDS011;2420;51.202;8.698;2022-09-09T15:08:57;4.78;;;1.60;;
4812;SDS011;2420;51.202;8.698;2022-09-09T15:11:25;3.08;;;1.88;;
4812;SDS011;2420;51.202;8.698;2022-09-09T15:13:53;3.03;;;1.40;;
4812;SDS011;2420;51.202;8.698;2022-09-09T15:16:19;3.63;;;1.40;;
4812;SDS011;2420;51.202;8.698;2022-09-09T15:18:46;5.03;;;1.60;;
4812;SDS011;2420;51.202;8.698;2022-09-09T15:21:16;6.63;;;1.60;;
4812;SDS011;2420;51.202;8.698;2022-09-09T15:23:47;4.88;;;1.60;;
4812;SDS011;2420;51.202;8.698;2022-09-09T15:26:13;5.10;;;1.60;;
4812;SDS011;2420;51.202;8.698;2022-09-09T15:28:40;2.58;;;1.65;;
4812;SDS011;2420;51.202;8.698;2022-09-09T15:31:07;3.00;;;1.40;;
4812;SDS011;2420;51.202;8.698;2022-09-09T15:33:52;4.95;;;1.60;;
4812;SDS011;2420;51.202;8.698;2022-09-09T15:36:25;3.25;;;1.50;;
4812;SDS011;2420;51.202;8.698;2022-09-09T15:39:21;3.63;;;1.50;;
4812;SDS011;2420;51.202;8.698;2022-09-09T15:41:47;2.42;;;1.40;;
4812;SDS011;2420;51.202;8.698;2022-09-09T15:44:13;6.45;;;1.40;;
4812;SDS011;2420;51.202;8.698;2022-09-09T15:51:43;3.75;;;1.67;;
4812;SDS011;2420;51.202;8.698;2022-09-09T15:54:11;2.15;;;1.42;;
4812;SDS011;2420;51.202;8.698;2022-09-09T15:56:38;2.28;;;1.27;;
4812;SDS011;2420;51.202;8.698;2022-09-09T15:59:05;3.35;;;1.38;;
4812;SDS011;2420;51.202;8.698;2022-09-09T16:01:31;2.78;;;1.27;;
4812;SDS011;2420;51.202;8.698;2022-09-09T16:03:57;3.45;;;1.63;;
4812;SDS011;2420;51.202;8.698;2022-09-09T16:06:24;3.67;;;1.48;;
4812;SDS011;2420;51.202;8.698;2022-09-09T16:08:52;2.38;;;1.52;;
4812;SDS011;2420;51.202;8.698;2022-09-09T16:11:19;5.75;;;1.60;;
4812;SDS011;2420;51.202;8.698;2022-09-09T16:13:53;3.22;;;1.60;;
4812;SDS011;2420;51.202;8.698;2022-09-09T16:16:21;3.35;;;1.38;;
4812;SDS011;2420;51.202;8.698;2022-09-09T16:18:53;3.42;;;1.60;;
4812;SDS011;2420;51.202;8.698;2022-09-09T16:21:25;2.80;;;1.50;;
4812;SDS011;2420;51.202;8.698;2022-09-09T16:24:00;4.95;;;1.50;;
4812;SDS011;2420;51.202;8.698;2022-09-09T16:26:29;2.47;;;1.13;;
4812;SDS011;2420;51.202;8.698;2022-09-09T16:28:57;3.38;;;1.30;;
4812;SDS011;2420;51.202;8.698;2022-09-09T16:31:24;2.97;;;1.40;;
4812;SDS011;2420;51.202;8.698;2022-09-09T16:33:50;1.52;;;1.20;;
4812;SDS011;2420;51.202;8.698;2022-09-09T16:36:17;2.25;;;1.40;;
4812;SDS011;2420;51.202;8.698;2022-09-09T16:38:45;2.08;;;1.00;;
4812;SDS011;2420;51.202;8.698;2022-09-09T16:41:11;3.25;;;1.20;;
4812;SDS011;2420;51.202;8.698;2022-09-09T16:43:39;1.40;;;1.00;;
4812;SDS011;2420;51.202;8.698;2022-09-09T16:46:15;1.60;;;0.90;;
4812;SDS011;2420;51.202;8.698;2022-09-09T16:48:43;3.38;;;0.93;;
4812;SDS011;2420;51.202;8.698;2022-09-09T16:51:14;1.08;;;0.70;;
4812;SDS011;2420;51.202;8.698;2022-09-09T16:53:41;0.77;;;0.70;;
4812;SDS011;2420;51.202;8.698;2022-09-09T16:56:09;0.70;;;0.70;;
4812;SDS011;2420;51.202;8.698;2022-09-09T16:58:36;1.63;;;0.80;;
4812;SDS011;2420;51.202;8.698;2022-09-09T17:01:02;0.95;;;0.80;;
4812;SDS011;2420;51.202;8.698;2022-09-09T17:03:28;1.58;;;0.80;;
4812;SDS011;2420;51.202;8.698;2022-09-09T17:05:54;0.75;;;0.70;;
4812;SDS011;2420;51.202;8.698;2022-09-09T17:08:20;0.80;;;0.70;;
4812;SDS011;2420;51.202;8.698;2022-09-09T17:10:45;1.50;;;0.90;;
4812;SDS011;2420;51.202;8.698;2022-09-09T17:13:12;1.15;;;0.68;;
4812;SDS011;2420;51.202;8.698;2022-09-09T17:15:41;0.93;;;0.60;;
4812;SDS011;2420;51.202;8.698;2022-09-09T17:18:08;1.00;;;0.63;;
4812;SDS011;2420;51.202;8.698;2022-09-09T17:20:38;0.70;;;0.60;;
4812;SDS011;2420;51.202;8.698;2022-09-09T17:23:05;0.73;;;0.60;;
4812;SDS011;2420;51.202;8.698;2022-09-09T17:25:31;1.00;;;0.90;;
4812;SDS011;2420;51.202;8.698;2022-09-09T17:27:57;1.23;;;1.00;;
4812;SDS011;2420;51.202;8.698;2022-09-09T17:30:23;1.45;;;0.90;;
4812;SDS011;2420;51.202;8.698;2022-09-09T17:32:49;1.42;;;0.90;;
4812;SDS011;2420;51.202;8.698;2022-09-09T17:35:14;1.02;;;0.80;;
4812;SDS011;2420;51.202;8.698;2022-09-09T17:37:40;1.15;;;0.70;;
4812;SDS011;2420;51.202;8.698;2022-09-09T17:40:06;1.00;;;0.80;;
4812;SDS011;2420;51.202;8.698;2022-09-09T17:42:33;1.77;;;0.80;;
4812;SDS011;2420;51.202;8.698;2022-09-09T17:44:59;0.88;;;0.77;;
4812;SDS011;2420;51.202;8.698;2022-09-09T17:47:24;1.15;;;0.95;;
4812;SDS011;2420;51.202;8.698;2022-09-09T17:49:50;2.40;;;0.80;;
4812;SDS011;2420;51.202;8.698;2022-09-09T17:52:16;1.17;;;0.90;;